Decoded Metar for PARY (RUBY in AK, USA) (IATA:RBY) | Meteo·Mobile Aviation Weather
aviador You're here:

PARY Decoded Metar

RUBY in AK, USA
Report Time2018-10-20 12:56:00
UTC Time2018-10-20 13:47:26
Flight Rules vfr VFR
Wind290° at 03 kt
W.Decomp.*RWY 21: 1.5 kt HW 2.6 kt RCW
W.Rank290° ranks 16
Current wind is below 290° avg. (5.1)
Visibility9999 m
Phenomena:N/A
Clouds:N/A
Expected CloudBase > 1,200 ft AGL from Temp-Dew spread
CeilingNone
Temp01°C (ISA -13)
Dew Point-2°C (81% RH)
AAT-2.3°C
QNH997 hPa
Density Alt-269 ft
Elevation653 ft
Report Wrong Elevation
Raw Report
PARY 201256Z AUTO 29003KT 10SM CLR 01/M02 A2944=

Extra information for PARY:More info

Metar Taf Metar & Taf Last 4 Metars F.Rules Stats Wind Profile Meteogram Temp Stats Airport Information Weather charts Add Link Nearby VenuesMetar ALERT Operation Metar Decoded Social comments

AIRNAV info for PARY